createdAt,value
2023-02-16T00:01:34.168Z,44.27
2023-02-16T00:04:01.029Z,47.00
2023-02-16T00:06:28.662Z,44.67
2023-02-16T00:08:56.170Z,48.17
2023-02-16T00:11:50.526Z,48.87
2023-02-16T00:14:18.122Z,49.30
2023-02-16T00:16:45.861Z,44.40
2023-02-16T00:19:20.539Z,43.77
2023-02-16T00:21:47.745Z,42.00
2023-02-16T00:24:14.588Z,42.43
2023-02-16T00:26:41.663Z,45.10
2023-02-16T00:29:10.880Z,43.27
2023-02-16T00:31:37.487Z,41.70
2023-02-16T00:34:24.380Z,40.70
2023-02-16T00:36:53.282Z,46.63
2023-02-16T00:39:22.519Z,43.30
2023-02-16T00:41:51.798Z,42.73
2023-02-16T00:44:20.768Z,43.10
2023-02-16T00:46:47.456Z,43.63
2023-02-16T00:49:14.923Z,42.63
2023-02-16T00:51:41.903Z,48.23
2023-02-16T00:54:08.410Z,42.23
2023-02-16T00:56:35.014Z,44.20
2023-02-16T00:59:02.436Z,44.40
2023-02-16T01:01:32.611Z,41.13
2023-02-16T01:04:01.443Z,41.87
2023-02-16T01:06:46.691Z,39.33
2023-02-16T01:09:33.451Z,39.10
2023-02-16T01:12:02.076Z,40.67
2023-02-16T01:14:30.011Z,40.13
2023-02-16T01:16:56.537Z,48.20
2023-02-16T01:19:23.146Z,40.67
2023-02-16T01:21:49.728Z,44.20
2023-02-16T01:24:16.437Z,36.43
2023-02-16T01:26:44.638Z,41.80
2023-02-16T01:29:14.148Z,43.00
2023-02-16T01:31:41.494Z,39.07
2023-02-16T01:34:08.139Z,38.03
2023-02-16T01:36:36.516Z,46.00
2023-02-16T01:39:06.198Z,46.17
2023-02-16T01:41:35.694Z,47.07
2023-02-16T01:44:09.529Z,48.93
2023-02-16T01:46:38.900Z,43.33
2023-02-16T01:49:05.427Z,44.43
2023-02-16T01:51:38.003Z,39.83
2023-02-16T01:54:12.726Z,41.20
2023-02-16T01:56:51.892Z,42.63
2023-02-16T01:59:31.250Z,38.40
2023-02-16T02:01:58.765Z,37.20
2023-02-16T02:04:44.115Z,37.37
2023-02-16T02:07:15.236Z,37.47
2023-02-16T02:09:45.312Z,42.70
2023-02-16T02:12:23.691Z,38.57
2023-02-16T02:14:51.668Z,38.93
2023-02-16T02:17:19.706Z,45.60
2023-02-16T02:19:59.781Z,37.33
2023-02-16T02:23:00.473Z,37.03
2023-02-16T02:25:27.632Z,40.00
2023-02-16T02:27:57.892Z,38.20
2023-02-16T02:30:24.490Z,40.80
2023-02-16T02:33:03.386Z,39.77
2023-02-16T02:35:30.096Z,41.20
2023-02-16T02:38:29.133Z,46.35
2023-02-16T02:41:17.888Z,39.87
2023-02-16T02:44:04.674Z,45.63
2023-02-16T02:46:33.420Z,42.03
2023-02-16T02:49:00.046Z,42.33
2023-02-16T02:51:29.283Z,37.37
2023-02-16T02:54:19.478Z,39.10
2023-02-16T02:57:25.408Z,41.60
2023-02-16T03:00:15.905Z,39.00
2023-02-16T03:02:43.356Z,43.93
2023-02-16T03:05:11.484Z,40.37
2023-02-16T03:07:47.655Z,37.70
2023-02-16T03:10:37.911Z,38.27
2023-02-16T03:13:05.787Z,38.53
2023-02-16T03:15:33.797Z,42.17
2023-02-16T03:18:20.262Z,38.90
2023-02-16T03:21:06.063Z,36.63
2023-02-16T03:23:51.846Z,37.77
2023-02-16T03:26:37.616Z,36.27
2023-02-16T03:29:38.023Z,34.73
2023-02-16T03:32:04.921Z,38.27
2023-02-16T03:34:32.095Z,35.50
2023-02-16T03:37:00.719Z,37.20
2023-02-16T03:39:28.346Z,41.05
2023-02-16T03:41:55.942Z,38.67
2023-02-16T03:44:22.828Z,38.37
2023-02-16T03:46:49.621Z,31.03
2023-02-16T03:49:17.144Z,32.20
2023-02-16T03:51:43.777Z,30.13
2023-02-16T03:54:10.376Z,35.67
2023-02-16T03:56:36.992Z,33.13
2023-02-16T03:59:03.684Z,31.73
2023-02-16T04:01:30.298Z,32.30
2023-02-16T04:03:56.912Z,34.07
2023-02-16T04:06:23.534Z,32.47
2023-02-16T04:08:50.867Z,34.73
2023-02-16T04:11:35.889Z,32.80
2023-02-16T04:14:03.104Z,32.23
2023-02-16T04:16:32.032Z,32.53
2023-02-16T04:18:58.603Z,29.97
2023-02-16T04:21:25.142Z,31.13
2023-02-16T04:23:51.619Z,28.90
2023-02-16T04:26:18.204Z,32.17
2023-02-16T04:28:44.730Z,31.67
2023-02-16T04:31:11.349Z,31.77
2023-02-16T04:33:37.936Z,29.00
2023-02-16T04:36:04.632Z,31.60
2023-02-16T04:38:31.114Z,30.83
2023-02-16T04:40:57.626Z,30.43
2023-02-16T04:43:24.255Z,33.33
2023-02-16T04:45:50.798Z,28.13
2023-02-16T04:48:17.462Z,30.77
2023-02-16T04:50:44.047Z,30.03
2023-02-16T04:53:10.553Z,30.13
2023-02-16T04:55:37.073Z,24.80
2023-02-16T04:58:03.586Z,28.47
2023-02-16T05:00:30.188Z,31.37
2023-02-16T05:02:56.768Z,29.07
2023-02-16T05:05:23.406Z,29.70
2023-02-16T05:07:49.903Z,28.50
2023-02-16T05:10:16.421Z,30.60
2023-02-16T05:13:01.759Z,27.77
2023-02-16T05:15:28.335Z,26.20
2023-02-16T05:17:54.855Z,27.63
2023-02-16T05:20:41.349Z,28.63
2023-02-16T05:23:07.903Z,26.40
2023-02-16T05:25:34.382Z,30.53
2023-02-16T05:28:00.920Z,25.50
2023-02-16T05:30:27.522Z,29.67
2023-02-16T05:32:54.064Z,31.67
2023-02-16T05:35:20.574Z,27.67
2023-02-16T05:37:47.063Z,26.20
2023-02-16T05:40:13.731Z,28.33
2023-02-16T05:42:40.303Z,28.00
2023-02-16T05:45:06.995Z,28.17
2023-02-16T05:47:33.481Z,24.30
2023-02-16T05:50:00.046Z,28.13
2023-02-16T05:52:26.589Z,23.97
2023-02-16T05:54:53.099Z,22.93
2023-02-16T05:57:19.632Z,29.73
2023-02-16T05:59:46.194Z,24.77
2023-02-16T06:02:12.688Z,24.73
2023-02-16T06:04:39.192Z,28.73
2023-02-16T06:07:05.733Z,24.63
2023-02-16T06:09:32.406Z,23.40
2023-02-16T06:11:59.192Z,23.63
2023-02-16T06:14:25.732Z,25.87
2023-02-16T06:16:52.298Z,20.80
2023-02-16T06:19:19.920Z,23.70
2023-02-16T06:21:46.780Z,23.13
2023-02-16T06:24:13.975Z,27.33
2023-02-16T06:26:40.922Z,23.47
2023-02-16T06:29:07.509Z,22.20
2023-02-16T06:31:36.433Z,22.23
2023-02-16T06:34:03.843Z,19.10
2023-02-16T06:36:30.649Z,18.93
2023-02-16T06:38:57.174Z,19.30
2023-02-16T06:41:35.734Z,25.37
2023-02-16T06:44:04.293Z,22.93
2023-02-16T06:46:31.283Z,21.23
2023-02-16T06:48:57.805Z,35.13
2023-02-16T06:51:24.348Z,25.17
2023-02-16T06:53:51.058Z,24.83
2023-02-16T06:56:17.644Z,24.73
2023-02-16T06:58:44.230Z,20.90
2023-02-16T07:01:10.847Z,24.20
2023-02-16T07:03:37.501Z,27.13
2023-02-16T07:06:04.255Z,24.50
2023-02-16T07:08:30.838Z,27.40
2023-02-16T07:10:57.314Z,21.00
2023-02-16T07:13:23.900Z,22.23
2023-02-16T07:15:50.492Z,22.93
2023-02-16T07:18:17.080Z,24.57
2023-02-16T07:20:43.595Z,26.40
2023-02-16T07:23:10.150Z,29.63
2023-02-16T07:25:37.276Z,29.03
2023-02-16T07:28:03.904Z,25.87
2023-02-16T07:30:30.524Z,27.00
2023-02-16T07:32:57.023Z,25.73
2023-02-16T07:35:23.525Z,26.43
2023-02-16T07:37:50.082Z,25.13
2023-02-16T07:40:16.648Z,26.90
2023-02-16T07:42:43.165Z,24.63
2023-02-16T07:45:09.831Z,24.67
2023-02-16T07:47:36.345Z,27.70
2023-02-16T07:50:02.934Z,24.30
2023-02-16T07:52:31.286Z,27.50
2023-02-16T07:54:59.017Z,25.17
2023-02-16T07:57:26.583Z,25.93
2023-02-16T07:59:53.234Z,26.20
2023-02-16T08:02:20.716Z,24.47
2023-02-16T08:04:48.576Z,21.57
2023-02-16T08:07:15.880Z,23.77
2023-02-16T08:09:42.661Z,25.27
2023-02-16T08:12:10.204Z,20.60
2023-02-16T08:14:37.058Z,23.73
2023-02-16T08:17:03.975Z,30.27
2023-02-16T08:19:31.060Z,24.73
2023-02-16T08:21:57.887Z,26.20
2023-02-16T08:24:25.131Z,21.03
2023-02-16T08:26:53.746Z,24.83
2023-02-16T08:29:20.861Z,26.40
2023-02-16T08:31:48.151Z,25.73
2023-02-16T08:34:16.016Z,27.67
2023-02-16T08:36:44.590Z,27.90
2023-02-16T08:39:15.309Z,27.03
2023-02-16T08:41:42.298Z,22.67
2023-02-16T08:44:10.016Z,24.87
2023-02-16T08:46:39.221Z,23.10
2023-02-16T08:49:06.332Z,24.13
2023-02-16T08:51:38.366Z,24.90
2023-02-16T08:54:06.041Z,21.80
2023-02-16T08:56:35.522Z,23.77
2023-02-16T08:59:02.331Z,25.03
2023-02-16T09:01:28.940Z,24.10
2023-02-16T09:03:55.525Z,22.83
2023-02-16T09:06:22.679Z,24.40
2023-02-16T09:08:52.868Z,22.20
2023-02-16T09:11:19.476Z,23.50
2023-02-16T09:13:46.894Z,25.87
2023-02-16T09:16:15.709Z,25.60
2023-02-16T09:18:42.684Z,29.60
2023-02-16T09:21:11.772Z,22.13
2023-02-16T09:23:40.228Z,24.77
2023-02-16T09:26:08.087Z,24.93
2023-02-16T09:28:35.131Z,25.20
2023-02-16T09:31:08.523Z,23.87
2023-02-16T09:33:35.062Z,23.63
2023-02-16T09:36:05.442Z,27.90
2023-02-16T09:38:32.650Z,25.53
2023-02-16T09:41:00.927Z,23.77
2023-02-16T09:43:40.235Z,24.17
2023-02-16T09:46:09.301Z,23.57
2023-02-16T09:48:45.505Z,23.87
2023-02-16T09:51:17.193Z,22.70
2023-02-16T09:53:46.866Z,24.40
2023-02-16T09:56:20.192Z,26.17
2023-02-16T09:58:49.618Z,25.20
2023-02-16T10:01:34.950Z,27.40
2023-02-16T10:04:27.562Z,24.10
2023-02-16T10:06:54.632Z,24.97
2023-02-16T10:09:21.305Z,28.47
2023-02-16T10:11:48.803Z,26.27
2023-02-16T10:14:24.416Z,23.97
2023-02-16T10:17:07.842Z,27.63
2023-02-16T10:19:47.155Z,26.40
2023-02-16T10:22:17.314Z,27.63
2023-02-16T10:24:54.939Z,22.07
2023-02-16T10:27:21.797Z,25.20
2023-02-16T10:29:48.479Z,21.73
2023-02-16T10:32:16.603Z,22.37
2023-02-16T10:34:49.217Z,24.27
2023-02-16T10:37:34.779Z,26.43
2023-02-16T10:40:10.307Z,26.10
2023-02-16T10:42:57.065Z,28.07
2023-02-16T10:45:29.897Z,24.60
2023-02-16T10:47:56.414Z,28.57
2023-02-16T10:50:29.009Z,27.13
2023-02-16T10:53:08.558Z,25.27
2023-02-16T10:55:36.464Z,25.20
2023-02-16T10:58:03.095Z,25.37
2023-02-16T11:00:51.820Z,25.27
2023-02-16T11:03:20.828Z,23.97
2023-02-16T11:05:47.795Z,23.47
2023-02-16T11:08:14.501Z,25.23
2023-02-16T11:10:48.297Z,24.13
2023-02-16T11:13:34.595Z,23.63
2023-02-16T11:16:05.134Z,24.37
2023-02-16T11:18:37.914Z,22.80
2023-02-16T11:21:06.287Z,25.80
2023-02-16T11:23:37.254Z,24.70
2023-02-16T11:26:10.110Z,23.73
2023-02-16T11:28:38.896Z,25.93
2023-02-16T11:31:14.718Z,25.57
2023-02-16T11:33:42.048Z,40.30
2023-02-16T11:36:27.853Z,25.27
2023-02-16T11:38:59.142Z,22.90
2023-02-16T11:41:26.110Z,25.23
2023-02-16T11:43:53.310Z,22.67
2023-02-16T11:46:20.651Z,23.23
2023-02-16T11:48:47.601Z,23.33
2023-02-16T11:51:19.265Z,24.80
2023-02-16T11:53:45.920Z,23.90
2023-02-16T11:56:12.894Z,24.30
2023-02-16T11:58:39.807Z,24.20
2023-02-16T12:01:18.209Z,21.43
2023-02-16T12:03:44.788Z,23.07
2023-02-16T12:06:21.467Z,19.60
2023-02-16T12:08:54.940Z,21.70
2023-02-16T12:11:26.314Z,24.63
2023-02-16T12:14:15.830Z,24.07
2023-02-16T12:16:58.731Z,26.90
2023-02-16T12:19:25.268Z,23.17
2023-02-16T12:22:01.547Z,22.33
2023-02-16T12:24:28.082Z,23.33
2023-02-16T12:27:02.653Z,23.47
2023-02-16T12:29:45.060Z,22.10
2023-02-16T12:32:11.730Z,22.43
2023-02-16T12:34:44.717Z,23.10
2023-02-16T12:37:32.373Z,24.03
2023-02-16T12:39:58.840Z,21.50
2023-02-16T12:42:25.361Z,23.63
2023-02-16T12:44:53.838Z,22.17
2023-02-16T12:47:32.437Z,21.07
2023-02-16T12:50:01.553Z,23.57
2023-02-16T12:52:35.456Z,19.27
2023-02-16T12:55:22.292Z,24.27
2023-02-16T12:58:07.667Z,24.37
2023-02-16T13:00:35.017Z,20.27
2023-02-16T13:03:11.218Z,22.23
2023-02-16T13:05:38.040Z,20.20
2023-02-16T13:08:23.708Z,23.43
2023-02-16T13:10:56.268Z,19.67
2023-02-16T13:13:25.013Z,22.30
2023-02-16T13:15:57.255Z,20.53
2023-02-16T13:18:30.389Z,19.63
2023-02-16T13:21:00.104Z,21.63
2023-02-16T13:23:26.570Z,19.90
2023-02-16T13:25:58.212Z,23.03
2023-02-16T13:28:31.452Z,19.17
2023-02-16T13:31:12.514Z,21.23
2023-02-16T13:34:00.510Z,21.90
2023-02-16T13:36:43.763Z,20.33
2023-02-16T13:39:25.246Z,19.27
2023-02-16T13:42:01.503Z,20.70
2023-02-16T13:44:40.218Z,18.93
2023-02-16T13:47:07.786Z,19.33
2023-02-16T13:49:40.421Z,19.30
2023-02-16T13:52:08.665Z,21.47
2023-02-16T13:54:36.590Z,17.67
2023-02-16T13:57:04.302Z,16.80
2023-02-16T13:59:37.003Z,21.17
2023-02-16T14:02:04.397Z,19.10
2023-02-16T14:04:31.076Z,20.53
2023-02-16T14:07:03.801Z,23.87
2023-02-16T14:09:45.659Z,18.87
2023-02-16T14:12:12.181Z,19.70
2023-02-16T14:14:43.342Z,18.10
2023-02-16T14:17:16.189Z,18.87
2023-02-16T14:20:02.254Z,18.17
2023-02-16T14:22:28.778Z,18.30
2023-02-16T14:24:57.210Z,16.43
2023-02-16T14:27:44.323Z,14.50
2023-02-16T14:30:26.357Z,17.27
2023-02-16T14:32:58.592Z,15.23
2023-02-16T14:35:27.672Z,16.47
2023-02-16T14:37:55.912Z,16.80
2023-02-16T14:40:34.448Z,19.90
2023-02-16T14:43:06.200Z,17.70
2023-02-16T14:45:38.735Z,14.47
2023-02-16T14:48:14.385Z,14.27
2023-02-16T14:50:59.556Z,16.80
2023-02-16T14:53:40.996Z,14.17
2023-02-16T14:56:13.615Z,16.37
2023-02-16T14:58:52.391Z,19.27
2023-02-16T15:01:19.612Z,32.13
2023-02-16T15:03:50.836Z,25.63
2023-02-16T15:06:19.162Z,17.00
2023-02-16T15:08:49.888Z,17.93
2023-02-16T15:11:20.990Z,13.57
2023-02-16T15:13:53.450Z,16.40
2023-02-16T15:16:20.680Z,15.30
2023-02-16T15:18:49.353Z,14.90
2023-02-16T15:21:20.785Z,15.73
2023-02-16T15:23:51.694Z,17.97
2023-02-16T15:26:20.470Z,20.33
2023-02-16T15:28:53.367Z,16.30
2023-02-16T15:31:23.991Z,14.73
2023-02-16T15:33:55.847Z,14.40
2023-02-16T15:36:24.436Z,12.70
2023-02-16T15:38:53.907Z,13.87
2023-02-16T15:41:37.384Z,12.47
2023-02-16T15:44:05.855Z,14.07
2023-02-16T15:46:32.433Z,12.80
2023-02-16T15:48:59.976Z,14.43
2023-02-16T15:51:28.628Z,14.27
2023-02-16T15:53:55.957Z,13.93
2023-02-16T15:56:37.534Z,16.67
2023-02-16T15:59:23.033Z,15.53
2023-02-16T16:01:55.130Z,12.50
2023-02-16T16:04:23.256Z,17.03
2023-02-16T16:06:51.405Z,14.10
2023-02-16T16:09:21.502Z,14.50
2023-02-16T16:11:48.953Z,15.23
2023-02-16T16:14:16.032Z,16.13
2023-02-16T16:16:43.642Z,16.13
2023-02-16T16:19:15.772Z,13.57
2023-02-16T16:21:51.404Z,14.70
2023-02-16T16:24:38.139Z,13.10
2023-02-16T16:27:06.763Z,12.60
2023-02-16T16:29:38.285Z,12.13
2023-02-16T16:32:06.439Z,18.27
2023-02-16T16:34:33.307Z,14.03
2023-02-16T16:37:02.532Z,13.07
2023-02-16T16:39:33.689Z,13.97
2023-02-16T16:42:00.156Z,14.93
2023-02-16T16:44:29.385Z,16.00
2023-02-16T16:46:55.966Z,16.73
2023-02-16T16:49:23.201Z,15.60
2023-02-16T16:51:52.784Z,18.27
2023-02-16T16:54:22.417Z,14.43
2023-02-16T16:56:48.963Z,17.70
2023-02-16T16:59:16.590Z,16.93
2023-02-16T17:01:45.264Z,16.47
2023-02-16T17:04:11.831Z,14.13
2023-02-16T17:06:38.349Z,18.07
2023-02-16T17:09:05.685Z,14.63
2023-02-16T17:11:33.736Z,16.50
2023-02-16T17:14:14.463Z,15.87
2023-02-16T17:16:43.035Z,17.43
2023-02-16T17:19:13.647Z,14.53
2023-02-16T17:21:40.197Z,16.43
2023-02-16T17:24:10.186Z,14.67
2023-02-16T17:26:37.581Z,12.73
2023-02-16T17:29:04.761Z,14.50
2023-02-16T17:31:31.595Z,15.03
2023-02-16T17:33:58.196Z,19.27
2023-02-16T17:36:25.559Z,16.37
2023-02-16T17:38:52.120Z,19.23
2023-02-16T17:41:20.464Z,17.03
2023-02-16T17:43:47.043Z,15.60
2023-02-16T17:46:14.776Z,15.33
2023-02-16T17:48:41.345Z,17.07
2023-02-16T17:51:14.666Z,16.47
2023-02-16T17:53:41.297Z,13.77
2023-02-16T17:56:10.697Z,16.37
2023-02-16T17:58:37.243Z,18.10
2023-02-16T18:01:04.055Z,15.33
2023-02-16T18:03:30.588Z,15.00
2023-02-16T18:05:58.254Z,17.57
2023-02-16T18:08:26.887Z,16.57
2023-02-16T18:11:02.513Z,18.10
2023-02-16T18:13:29.618Z,19.83
2023-02-16T18:15:56.616Z,18.30
2023-02-16T18:18:23.258Z,16.27
2023-02-16T18:20:50.022Z,17.27
2023-02-16T18:23:17.234Z,15.67
2023-02-16T18:25:44.245Z,21.37
2023-02-16T18:28:14.763Z,15.37
2023-02-16T18:30:41.694Z,19.17
2023-02-16T18:33:08.306Z,16.07
2023-02-16T18:35:34.871Z,14.93
2023-02-16T18:38:01.450Z,17.57
2023-02-16T18:40:28.002Z,15.87
2023-02-16T18:42:54.660Z,15.27
2023-02-16T18:45:21.187Z,18.37
2023-02-16T18:47:47.996Z,16.87
2023-02-16T18:50:14.654Z,17.70
2023-02-16T18:52:45.027Z,15.57
2023-02-16T18:55:12.593Z,15.43
2023-02-16T18:57:39.164Z,16.07
2023-02-16T19:00:06.461Z,19.70
2023-02-16T19:02:33.214Z,18.57
2023-02-16T19:04:59.769Z,21.10
2023-02-16T19:07:26.404Z,19.57
2023-02-16T19:09:53.009Z,18.10
2023-02-16T19:12:19.588Z,16.77
2023-02-16T19:14:46.096Z,17.90
2023-02-16T19:17:12.719Z,19.63
2023-02-16T19:19:39.388Z,20.80
2023-02-16T19:22:05.931Z,18.53
2023-02-16T19:24:32.564Z,17.57
2023-02-16T19:26:59.043Z,18.30
2023-02-16T19:29:25.533Z,19.83
2023-02-16T19:31:52.299Z,19.90
2023-02-16T19:34:18.851Z,22.10
2023-02-16T19:36:45.516Z,20.93
2023-02-16T19:39:12.708Z,20.70
2023-02-16T19:41:40.219Z,17.93
2023-02-16T19:44:07.019Z,19.77
2023-02-16T19:46:34.580Z,18.83
2023-02-16T19:49:01.551Z,19.63
2023-02-16T19:51:28.330Z,18.70
2023-02-16T19:53:54.851Z,22.97
2023-02-16T19:56:23.296Z,19.90
2023-02-16T19:58:50.656Z,18.27
2023-02-16T20:01:21.649Z,16.70
2023-02-16T20:03:48.772Z,15.80
2023-02-16T20:06:16.776Z,17.77
2023-02-16T20:08:44.011Z,18.53
2023-02-16T20:11:10.877Z,20.77
2023-02-16T20:13:38.112Z,17.50
2023-02-16T20:16:05.988Z,18.97
2023-02-16T20:18:32.711Z,20.03
2023-02-16T20:20:59.861Z,22.00
2023-02-16T20:23:27.066Z,18.23
2023-02-16T20:25:53.906Z,19.50
2023-02-16T20:28:20.586Z,18.03
2023-02-16T20:30:47.215Z,17.27
2023-02-16T20:33:14.810Z,17.30
2023-02-16T20:35:41.768Z,21.40
2023-02-16T20:38:08.328Z,18.43
2023-02-16T20:40:34.862Z,16.63
2023-02-16T20:43:01.487Z,19.10
2023-02-16T20:45:28.056Z,16.03
2023-02-16T20:47:54.576Z,17.40
2023-02-16T20:50:21.080Z,18.97
2023-02-16T20:52:47.627Z,16.53
2023-02-16T20:55:14.737Z,18.00
2023-02-16T20:57:41.331Z,15.37
2023-02-16T21:00:13.248Z,16.20
2023-02-16T21:02:40.475Z,17.00
2023-02-16T21:05:08.016Z,18.00
2023-02-16T21:07:34.602Z,18.57
2023-02-16T21:10:01.150Z,16.43
2023-02-16T21:12:27.654Z,18.00
2023-02-16T21:14:54.240Z,15.20
2023-02-16T21:17:20.950Z,17.80
2023-02-16T21:19:47.529Z,15.20
2023-02-16T21:22:14.421Z,16.13
2023-02-16T21:24:42.109Z,15.80
2023-02-16T21:27:08.751Z,17.00
2023-02-16T21:29:35.572Z,16.93
2023-02-16T21:32:02.087Z,16.03
2023-02-16T21:34:28.794Z,17.37
2023-02-16T21:36:55.401Z,16.57
2023-02-16T21:39:42.732Z,17.47
2023-02-16T21:42:09.212Z,17.93
2023-02-16T21:44:43.084Z,18.60
2023-02-16T21:47:31.607Z,21.70
2023-02-16T21:49:58.522Z,16.67
2023-02-16T21:52:25.747Z,15.40
2023-02-16T21:55:10.885Z,15.07
2023-02-16T21:57:37.436Z,18.70
2023-02-16T22:00:06.189Z,17.37
2023-02-16T22:02:33.277Z,18.80
2023-02-16T22:04:59.801Z,17.37
2023-02-16T22:07:26.334Z,15.47
2023-02-16T22:09:52.932Z,19.60
2023-02-16T22:12:19.463Z,21.33
2023-02-16T22:14:45.997Z,17.50
2023-02-16T22:17:12.714Z,16.67
2023-02-16T22:19:39.294Z,18.20
2023-02-16T22:22:05.800Z,17.50
2023-02-16T22:24:32.381Z,19.60
2023-02-16T22:26:58.935Z,17.47
2023-02-16T22:29:25.468Z,17.90
2023-02-16T22:31:52.010Z,20.50
2023-02-16T22:34:19.855Z,17.13
2023-02-16T22:36:46.406Z,17.60
2023-02-16T22:39:13.755Z,18.03
2023-02-16T22:41:40.357Z,19.77
2023-02-16T22:44:07.255Z,21.93
2023-02-16T22:46:33.931Z,21.73
2023-02-16T22:49:00.536Z,19.43
2023-02-16T22:51:29.228Z,21.03
2023-02-16T22:53:57.539Z,21.63
2023-02-16T22:56:24.207Z,17.20
2023-02-16T22:58:50.754Z,20.90
2023-02-16T23:01:18.762Z,18.13
2023-02-16T23:03:53.501Z,20.03
2023-02-16T23:06:21.208Z,19.03
2023-02-16T23:08:51.480Z,20.90
2023-02-16T23:11:18.268Z,20.23
2023-02-16T23:13:44.778Z,25.47
2023-02-16T23:16:12.910Z,23.53
2023-02-16T23:18:39.654Z,21.13
2023-02-16T23:21:11.043Z,22.77
2023-02-16T23:23:37.569Z,22.93
2023-02-16T23:26:05.848Z,20.53
2023-02-16T23:28:33.190Z,20.63
2023-02-16T23:30:59.754Z,20.17
2023-02-16T23:33:26.348Z,22.63
2023-02-16T23:35:53.004Z,18.50
2023-02-16T23:38:19.555Z,21.33
2023-02-16T23:40:47.015Z,21.87
2023-02-16T23:43:13.651Z,17.57
2023-02-16T23:45:43.537Z,19.73
2023-02-16T23:48:10.096Z,19.60
2023-02-16T23:50:36.623Z,19.40
2023-02-16T23:53:03.212Z,18.07
2023-02-16T23:55:29.773Z,20.53
2023-02-16T23:57:56.276Z,20.63
